Terminal Aerodrome Forecast
Issued by NWS

Current Version | Previous Version | Graphics & Text | Print | Product List | Glossary On
Versions: 1 2 3 4 5 6 7 8 9 10 11 12 13 14 15 16 17
670
FTUS41 KPBZ 171129
TAFMGW
TAF
KMGW 171129Z 1712/1812 00000KT P6SM OVC060
     FM171900 22008KT P6SM SCT100
     FM180400 21007KT P6SM FEW250 WS020/25035KT
     FM180800 21007KT P6SM FEW250=

USA.gov is the U.S. government's official web portal to all federal, state and local government web resources and services.